Time;durP1;ratioP1;P1;durP2;ratioP2;P2;SDS_P1;SDS_P2;PMS_P1;PMS_P2;Temp;Humidity;BMP_temperature;BMP_pressure;BME280_temperature;BME280_humidity;BME280_pressure;Samples;Min_cycle;Max_cycle;Signal;HPM_P1;HPM_P2
2022/04/17 00:01:42;;;;;;;10.10;5.30;;;6.20;99.90;;;;;;4915060;29;20047;-89
2022/04/17 00:04:10;;;;;;;9.18;4.63;;;6.20;99.90;;;;;;4915728;29;20485;-89
2022/04/17 00:06:37;;;;;;;10.60;5.32;;;6.20;99.90;;;;;;4932803;29;20505;-89
2022/04/17 00:09:02;;;;;;;9.82;5.72;;;6.10;99.90;;;;;;4931408;29;20054;-89
2022/04/17 00:11:28;;;;;;;11.20;5.35;;;6.20;99.90;;;;;;4907612;29;20052;-89
2022/04/17 00:13:55;;;;;;;10.98;5.50;;;6.20;99.90;;;;;;4897845;29;20133;-89
2022/04/17 00:16:21;;;;;;;9.75;5.28;;;6.10;99.90;;;;;;4915155;29;20059;-89
2022/04/17 00:18:46;;;;;;;10.63;5.85;;;6.10;99.90;;;;;;4914802;29;20500;-90
2022/04/17 00:21:12;;;;;;;11.15;4.90;;;6.10;99.90;;;;;;4915062;29;20131;-89
2022/04/17 00:23:38;;;;;;;11.40;5.32;;;6.10;99.90;;;;;;4933807;29;20055;-90
2022/04/17 00:26:03;;;;;;;10.00;5.40;;;6.00;99.90;;;;;;4941157;29;20083;-89
2022/04/17 00:28:29;;;;;;;13.25;6.57;;;6.00;99.90;;;;;;4925862;29;20055;-89
2022/04/17 00:30:55;;;;;;;11.68;5.13;;;6.00;99.90;;;;;;4941314;29;20042;-89
2022/04/17 00:33:20;;;;;;;10.68;5.72;;;5.90;99.90;;;;;;4899202;29;20051;-89
2022/04/17 00:35:46;;;;;;;9.70;5.03;;;5.90;99.90;;;;;;4931951;29;20036;-89
2022/04/17 00:38:12;;;;;;;10.20;6.20;;;5.90;99.90;;;;;;4931944;29;20040;-90
2022/04/17 00:40:37;;;;;;;10.77;5.93;;;5.90;99.90;;;;;;4931455;29;20418;-89
2022/04/17 00:43:20;;;;;;;10.65;5.75;;;5.80;99.90;;;;;;4931467;29;20130;-89
2022/04/17 00:45:46;;;;;;;10.15;5.70;;;5.90;99.90;;;;;;4926204;29;20117;-90
2022/04/17 00:48:11;;;;;;;11.07;6.18;;;5.90;99.90;;;;;;4914472;29;20377;-90
2022/04/17 00:50:37;;;;;;;12.48;6.32;;;5.80;99.90;;;;;;4934437;29;20378;-90
2022/04/17 00:53:03;;;;;;;10.93;6.15;;;5.80;99.90;;;;;;4915994;29;20113;-90
2022/04/17 00:55:28;;;;;;;9.60;5.47;;;5.80;99.90;;;;;;4898713;29;20059;-90
2022/04/17 00:57:54;;;;;;;10.57;6.07;;;5.80;99.90;;;;;;4935484;29;20051;-89
2022/04/17 01:00:20;;;;;;;10.35;6.28;;;5.80;99.90;;;;;;4935255;29;20044;-90
2022/04/17 01:02:45;;;;;;;11.02;5.72;;;5.70;99.90;;;;;;4931589;29;20056;-89
2022/04/17 01:05:11;;;;;;;11.15;6.80;;;5.70;99.90;;;;;;4935036;29;20099;-89
2022/04/17 01:07:37;;;;;;;9.75;5.90;;;5.70;99.90;;;;;;4935874;29;20040;-90
2022/04/17 01:10:05;;;;;;;10.85;6.10;;;5.70;99.90;;;;;;4901499;29;20087;-89
2022/04/17 01:12:30;;;;;;;11.52;6.07;;;5.70;99.90;;;;;;4917996;29;20075;-90
2022/04/17 01:14:56;;;;;;;11.18;6.03;;;5.60;99.90;;;;;;4920802;29;20099;-89
2022/04/17 01:17:22;;;;;;;12.38;7.07;;;5.60;99.90;;;;;;4916116;29;20052;-89
2022/04/17 01:19:48;;;;;;;11.50;6.35;;;5.60;99.90;;;;;;4916063;29;20040;-90
2022/04/17 01:22:13;;;;;;;11.43;6.80;;;5.60;99.90;;;;;;4916257;29;20324;-88
2022/04/17 01:27:25;;;;;;;11.10;6.32;;;5.60;99.90;;;;;;4916157;29;20048;-89
2022/04/17 01:29:51;;;;;;;11.50;6.53;;;5.60;99.90;;;;;;4914935;29;20457;-89
2022/04/17 01:32:17;;;;;;;10.93;6.60;;;5.50;99.90;;;;;;4916443;29;20043;-89
2022/04/17 01:34:43;;;;;;;11.18;6.82;;;5.50;99.90;;;;;;4915616;29;20051;-88
2022/04/17 01:37:10;;;;;;;12.10;6.97;;;5.50;99.90;;;;;;4898679;29;20490;-89
2022/04/17 01:39:36;;;;;;;10.27;5.93;;;5.60;99.90;;;;;;4915873;29;20040;-90
2022/04/17 01:42:02;;;;;;;11.10;5.93;;;5.50;99.90;;;;;;4898398;29;20547;-89
2022/04/17 01:44:28;;;;;;;11.10;6.03;;;5.50;99.90;;;;;;4898058;29;20485;-89
2022/04/17 01:46:55;;;;;;;11.63;7.03;;;5.50;99.90;;;;;;4898185;29;20072;-89
2022/04/17 01:49:21;;;;;;;11.60;7.13;;;5.50;99.90;;;;;;4898603;29;20401;-90
2022/04/17 01:51:48;;;;;;;10.63;6.30;;;5.40;99.90;;;;;;4916182;29;20080;-90
2022/04/17 01:54:15;;;;;;;11.10;6.82;;;5.40;99.90;;;;;;4907634;29;20081;-90
2022/04/17 01:56:42;;;;;;;13.07;7.15;;;5.40;99.90;;;;;;4920617;29;20039;-89
2022/04/17 01:59:09;;;;;;;12.07;7.35;;;5.40;99.90;;;;;;4925400;29;20040;-90
2022/04/17 02:01:35;;;;;;;11.63;6.82;;;5.40;99.90;;;;;;4931750;29;20044;-89
2022/04/17 02:04:02;;;;;;;11.43;7.38;;;5.40;99.90;;;;;;4947153;29;20059;-88
2022/04/17 02:06:28;;;;;;;11.40;6.82;;;5.40;99.90;;;;;;4932920;29;20056;-90
2022/04/17 02:08:54;;;;;;;11.88;6.60;;;5.40;99.90;;;;;;4916949;29;20051;-90
2022/04/17 02:11:21;;;;;;;12.35;6.90;;;5.40;99.90;;;;;;4915475;29;20450;-89
2022/04/17 02:13:48;;;;;;;11.57;6.38;;;5.30;99.90;;;;;;4901946;29;20126;-89
2022/04/17 02:16:14;;;;;;;11.77;7.38;;;5.30;99.90;;;;;;4916775;29;20051;-89
2022/04/17 02:18:40;;;;;;;11.65;7.25;;;5.30;99.90;;;;;;4933956;29;20040;-89
2022/04/17 02:21:06;;;;;;;13.85;6.93;;;5.30;99.90;;;;;;4934177;29;20050;-89
2022/04/17 02:23:32;;;;;;;13.65;7.15;;;5.20;99.90;;;;;;4943086;29;20075;-90
2022/04/17 02:25:57;;;;;;;11.35;7.03;;;5.30;99.90;;;;;;4925287;29;20052;-89
2022/04/17 02:28:23;;;;;;;13.05;7.68;;;5.20;99.90;;;;;;4917403;29;20095;-89
2022/04/17 02:30:48;;;;;;;11.70;7.25;;;5.20;99.90;;;;;;4916367;29;20063;-89
2022/04/17 02:33:14;;;;;;;12.48;7.18;;;5.10;99.90;;;;;;4934163;29;20048;-89
2022/04/17 02:35:39;;;;;;;12.68;7.32;;;5.10;99.90;;;;;;4929591;29;20048;-89
2022/04/17 02:38:05;;;;;;;14.40;7.63;;;5.10;99.90;;;;;;4916757;29;20052;-89
2022/04/17 02:40:31;;;;;;;12.07;7.10;;;5.10;99.90;;;;;;4916651;29;20432;-89
2022/04/17 02:42:59;;;;;;;13.07;6.53;;;5.10;99.90;;;;;;4933146;29;20389;-90
2022/04/17 02:45:25;;;;;;;13.07;7.35;;;5.00;99.90;;;;;;4916224;29;20083;-89
2022/04/17 02:47:51;;;;;;;15.38;7.72;;;5.00;99.90;;;;;;4933344;29;20150;-89
2022/04/17 02:50:18;;;;;;;12.77;7.50;;;5.00;99.90;;;;;;4925076;29;20079;-89
2022/04/17 02:52:45;;;;;;;12.57;7.53;;;5.00;99.90;;;;;;4933267;29;20048;-89
2022/04/17 02:55:12;;;;;;;11.88;7.38;;;4.90;99.90;;;;;;4919119;29;20059;-89
2022/04/17 02:57:37;;;;;;;14.57;7.25;;;4.90;99.90;;;;;;4932274;29;20371;-89
2022/04/17 03:00:05;;;;;;;13.65;7.80;;;4.90;99.90;;;;;;4932623;29;20042;-89
2022/04/17 03:07:59;;;;;;;13.25;7.68;;;4.90;99.90;;;;;;4925492;29;20043;-90
2022/04/17 03:10:25;;;;;;;13.27;7.90;;;4.80;99.90;;;;;;4933084;29;20103;-89
2022/04/17 03:12:51;;;;;;;13.68;7.97;;;4.80;99.90;;;;;;4915689;29;20039;-90
2022/04/17 03:15:16;;;;;;;12.52;6.90;;;4.70;99.90;;;;;;4933063;29;20486;-90
2022/04/17 03:17:42;;;;;;;11.93;7.35;;;4.80;99.90;;;;;;4915821;29;20051;-89
2022/04/17 03:20:08;;;;;;;11.93;7.53;;;4.70;99.90;;;;;;4932408;29;20040;-90
2022/04/17 03:22:34;;;;;;;15.35;7.90;;;4.70;99.90;;;;;;4932665;29;20094;-89
2022/04/17 03:25:00;;;;;;;13.20;7.63;;;4.70;99.90;;;;;;4932599;29;20091;-89
2022/04/17 03:27:28;;;;;;;13.50;7.53;;;4.70;99.90;;;;;;4933166;29;20086;-89
2022/04/17 03:29:54;;;;;;;14.77;8.57;;;4.70;99.90;;;;;;4920401;29;20153;-90
2022/04/17 03:32:20;;;;;;;13.35;7.97;;;4.70;99.90;;;;;;4930081;29;20047;-90
2022/04/17 03:34:45;;;;;;;14.20;8.18;;;4.60;99.90;;;;;;4942170;29;20444;-89
2022/04/17 03:37:11;;;;;;;11.73;7.28;;;4.60;99.90;;;;;;4932499;29;20059;-89
2022/04/17 03:39:37;;;;;;;12.98;8.00;;;4.60;99.90;;;;;;4916594;29;20048;-90
2022/04/17 03:42:03;;;;;;;13.13;7.60;;;4.60;99.90;;;;;;4932427;29;20044;-90
2022/04/17 03:44:29;;;;;;;14.88;7.60;;;4.60;99.90;;;;;;4903997;29;20560;-90
2022/04/17 03:46:54;;;;;;;13.95;7.85;;;4.60;99.90;;;;;;4929956;29;20044;-89
2022/04/17 03:49:20;;;;;;;14.27;7.15;;;4.50;99.90;;;;;;4932007;29;20114;-89
2022/04/17 03:51:45;;;;;;;12.20;7.50;;;4.50;99.90;;;;;;4931926;29;20462;-89
2022/04/17 03:54:11;;;;;;;12.35;7.47;;;4.50;99.90;;;;;;4930016;29;20039;-89
2022/04/17 03:56:36;;;;;;;13.30;7.72;;;4.50;99.90;;;;;;4915542;29;20044;-89
2022/04/17 03:59:02;;;;;;;12.48;8.32;;;4.50;99.90;;;;;;4932200;29;20046;-89
2022/04/17 04:01:28;;;;;;;13.88;8.07;;;4.50;99.90;;;;;;4932794;29;20036;-89
2022/04/17 04:03:54;;;;;;;15.70;9.02;;;4.50;99.90;;;;;;4931641;29;20043;-89
2022/04/17 04:06:21;;;;;;;14.73;8.65;;;4.50;99.90;;;;;;4932069;29;20130;-89
2022/04/17 04:08:48;;;;;;;13.02;8.82;;;4.40;99.90;;;;;;4931636;29;20634;-89
2022/04/17 04:11:15;;;;;;;12.38;8.23;;;4.40;99.90;;;;;;4931874;29;20086;-89
2022/04/17 04:13:42;;;;;;;14.30;7.55;;;4.40;99.90;;;;;;4898899;29;20059;-89
2022/04/17 04:16:08;;;;;;;13.45;7.72;;;4.40;99.90;;;;;;4905797;29;20375;-89
2022/04/17 04:18:34;;;;;;;13.25;8.13;;;4.40;99.90;;;;;;4914532;29;20058;-89
2022/04/17 04:21:00;;;;;;;14.23;8.52;;;4.30;99.90;;;;;;4932177;29;20048;-89
2022/04/17 04:23:26;;;;;;;11.88;7.40;;;4.30;99.90;;;;;;4941063;29;20095;-89
2022/04/17 04:25:51;;;;;;;14.38;7.95;;;4.30;99.90;;;;;;4921928;29;20119;-88
2022/04/17 04:28:33;;;;;;;12.30;7.88;;;4.20;99.90;;;;;;4932291;29;20048;-89
2022/04/17 04:31:09;;;;;;;13.65;7.13;;;4.20;99.90;;;;;;4913858;29;20086;-89
2022/04/17 04:33:37;;;;;;;12.57;7.43;;;4.20;99.90;;;;;;4915505;29;20091;-89
2022/04/17 04:36:04;;;;;;;12.93;8.05;;;4.20;99.90;;;;;;4914186;29;20552;-88
2022/04/17 04:38:30;;;;;;;13.07;7.85;;;4.10;99.90;;;;;;4932205;29;20115;-89
2022/04/17 04:40:56;;;;;;;12.82;7.57;;;4.10;99.90;;;;;;4898491;29;20084;-89
2022/04/17 04:43:22;;;;;;;13.45;7.82;;;4.10;99.90;;;;;;4904631;29;20048;-89
2022/04/17 04:51:17;;;;;;;12.38;7.75;;;4.10;99.90;;;;;;4926957;29;20056;-89
2022/04/17 04:53:43;;;;;;;12.57;7.43;;;4.10;99.90;;;;;;4931995;29;20040;-89
2022/04/17 04:56:09;;;;;;;11.68;7.68;;;4.10;99.90;;;;;;4952676;29;20039;-88
2022/04/17 04:58:34;;;;;;;13.18;8.30;;;4.10;99.90;;;;;;4947402;29;20497;-89
2022/04/17 05:01:00;;;;;;;14.52;8.02;;;4.10;99.90;;;;;;4922425;29;20056;-89
2022/04/17 05:03:26;;;;;;;13.13;7.70;;;4.20;99.90;;;;;;4948864;29;20043;-89
2022/04/17 05:05:52;;;;;;;13.68;8.55;;;4.20;99.90;;;;;;4943636;29;20054;-89
2022/04/17 05:08:21;;;;;;;11.98;7.65;;;4.20;99.90;;;;;;4933394;29;20135;-89
2022/04/17 05:10:47;;;;;;;12.98;6.97;;;4.30;99.90;;;;;;4915279;29;20043;-90
2022/04/17 05:13:13;;;;;;;12.75;7.68;;;4.30;99.90;;;;;;4915362;29;20095;-89
2022/04/17 05:15:39;;;;;;;13.77;8.10;;;4.40;99.90;;;;;;4939234;29;20055;-89
2022/04/17 05:18:05;;;;;;;14.63;9.02;;;4.50;99.90;;;;;;4914795;29;20054;-92
2022/04/17 05:20:34;;;;;;;14.50;9.00;;;4.50;99.90;;;;;;4916624;29;20129;-93
2022/04/17 05:23:15;;;;;;;14.88;8.35;;;4.60;99.90;;;;;;4931384;29;20130;-95
2022/04/17 05:25:41;;;;;;;14.13;8.90;;;4.60;99.90;;;;;;4953631;29;20481;-93
2022/04/17 05:28:07;;;;;;;13.00;7.50;;;4.70;99.90;;;;;;4934594;29;20048;-94
2022/04/17 05:30:32;;;;;;;13.32;7.97;;;4.70;99.90;;;;;;4934543;29;20059;-91
2022/04/17 05:32:58;;;;;;;14.68;8.65;;;4.80;99.90;;;;;;4934799;29;20039;-92
2022/04/17 05:35:23;;;;;;;14.07;8.43;;;4.90;99.90;;;;;;4917654;29;20040;-93
2022/04/17 05:37:49;;;;;;;13.85;7.80;;;5.00;99.90;;;;;;4918129;29;20048;-90
2022/04/17 05:40:14;;;;;;;14.00;8.70;;;5.10;99.90;;;;;;4916893;29;20047;-89
2022/04/17 05:42:40;;;;;;;12.05;8.00;;;5.10;99.90;;;;;;4917641;29;20091;-90
2022/04/17 05:45:06;;;;;;;15.27;8.40;;;5.20;99.90;;;;;;4916992;29;20109;-90
2022/04/17 05:47:32;;;;;;;11.82;7.28;;;5.30;99.90;;;;;;4917588;29;20048;-89
2022/04/17 05:49:59;;;;;;;15.30;8.85;;;5.40;99.90;;;;;;4935247;29;20138;-89
2022/04/17 05:52:25;;;;;;;13.65;8.18;;;5.50;99.90;;;;;;4934540;29;20047;-89
2022/04/17 05:54:51;;;;;;;12.80;8.82;;;5.60;99.90;;;;;;4935434;29;20107;-90
2022/04/17 05:57:16;;;;;;;14.32;7.95;;;5.70;99.90;;;;;;4933394;29;20054;-88
2022/04/17 05:59:42;;;;;;;13.18;8.43;;;5.80;99.90;;;;;;4916719;29;20130;-87
2022/04/17 06:02:09;;;;;;;12.43;7.70;;;5.80;99.90;;;;;;4932584;29;20051;-86
2022/04/17 06:04:35;;;;;;;14.27;9.45;;;5.90;99.90;;;;;;4933666;29;20062;-87
2022/04/17 06:07:00;;;;;;;14.02;9.15;;;6.00;99.90;;;;;;4916114;29;20040;-87
2022/04/17 06:09:26;;;;;;;16.58;8.85;;;6.10;99.90;;;;;;4933697;29;20052;-86
2022/04/17 06:11:51;;;;;;;12.88;8.40;;;6.20;99.90;;;;;;4933217;29;20044;-87
2022/04/17 06:14:17;;;;;;;13.65;9.38;;;6.30;99.90;;;;;;4915534;29;20070;-88
2022/04/17 06:16:42;;;;;;;12.10;8.68;;;6.40;99.90;;;;;;4932837;29;20570;-87
2022/04/17 06:19:09;;;;;;;14.23;8.35;;;6.50;99.90;;;;;;4928182;29;20040;-88
2022/04/17 06:21:36;;;;;;;13.90;8.50;;;6.60;99.90;;;;;;4913862;29;20103;-88
2022/04/17 06:24:02;;;;;;;12.75;9.45;;;6.80;99.90;;;;;;4903680;29;20056;-88
2022/04/17 06:26:27;;;;;;;15.13;8.80;;;6.90;99.90;;;;;;4916363;29;20400;-90
2022/04/17 06:28:53;;;;;;;13.50;8.88;;;7.00;99.90;;;;;;4914908;29;20054;-87
2022/04/17 06:31:18;;;;;;;14.65;9.35;;;7.10;99.90;;;;;;4917473;29;20122;-87
2022/04/17 06:33:44;;;;;;;12.88;8.88;;;7.20;99.90;;;;;;4914984;29;20422;-88
2022/04/17 06:36:09;;;;;;;13.85;9.00;;;7.30;99.90;;;;;;4916176;29;20035;-87
2022/04/17 06:38:35;;;;;;;14.63;9.57;;;7.40;99.90;;;;;;4933755;29;20039;-86
2022/04/17 06:41:01;;;;;;;14.52;9.02;;;7.50;99.90;;;;;;4931917;29;20047;-86
2022/04/17 06:43:26;;;;;;;13.40;10.30;;;7.70;99.90;;;;;;4931294;29;20044;-87
2022/04/17 06:45:52;;;;;;;14.50;11.38;;;7.80;99.90;;;;;;4916559;29;20454;-88
2022/04/17 06:48:22;;;;;;;13.98;9.68;;;8.00;99.90;;;;;;4920582;29;20464;-90
2022/04/17 06:50:49;;;;;;;13.40;8.88;;;8.00;99.90;;;;;;4932533;29;20045;-88
2022/04/17 06:53:16;;;;;;;13.68;9.43;;;8.10;99.90;;;;;;4933050;29;20421;-87
2022/04/17 06:55:41;;;;;;;13.45;10.23;;;8.20;99.90;;;;;;4933216;29;20048;-86
2022/04/17 06:58:08;;;;;;;15.07;10.25;;;8.30;99.90;;;;;;4931351;29;20387;-86
2022/04/17 07:00:34;;;;;;;12.20;10.63;;;8.40;99.90;;;;;;4928647;29;20441;-86
2022/04/17 07:03:00;;;;;;;12.32;10.60;;;8.50;99.90;;;;;;4927358;29;20055;-86
2022/04/17 07:05:26;;;;;;;12.63;10.52;;;8.60;99.90;;;;;;4933189;29;20036;-86
2022/04/17 07:08:05;;;;;;;13.35;10.10;;;8.70;99.90;;;;;;4926613;29;20593;-86
2022/04/17 07:10:32;;;;;;;13.00;10.15;;;8.80;99.90;;;;;;4945950;29;20044;-86
2022/04/17 07:12:58;;;;;;;12.90;10.35;;;8.90;99.90;;;;;;4932439;29;20052;-86
2022/04/17 07:15:26;;;;;;;11.65;9.93;;;9.00;99.90;;;;;;4932897;29;20066;-87
2022/04/17 07:17:53;;;;;;;13.57;10.07;;;9.10;99.90;;;;;;4932548;29;20394;-86
2022/04/17 07:20:20;;;;;;;13.60;10.13;;;9.20;99.90;;;;;;4914624;29;20051;-86
2022/04/17 07:22:47;;;;;;;12.63;9.82;;;9.30;99.90;;;;;;4913889;29;20058;-86
2022/04/17 07:25:14;;;;;;;13.25;10.13;;;9.40;99.90;;;;;;4929906;29;20039;-86
2022/04/17 07:27:42;;;;;;;13.27;9.95;;;9.50;99.90;;;;;;4914956;29;20334;-86
2022/04/17 07:30:16;;;;;;;12.60;9.98;;;9.60;99.90;;;;;;4931328;29;20572;-86
2022/04/17 07:32:44;;;;;;;12.75;9.57;;;9.70;99.90;;;;;;4930708;29;20040;-87
2022/04/17 07:35:11;;;;;;;12.55;9.95;;;9.80;99.90;;;;;;4927465;29;20039;-87
2022/04/17 07:37:37;;;;;;;13.00;9.00;;;9.90;99.90;;;;;;4931386;29;20417;-89
2022/04/17 07:40:15;;;;;;;11.90;9.07;;;10.00;99.90;;;;;;4928326;29;20039;-87
2022/04/17 07:42:42;;;;;;;12.02;8.75;;;10.00;99.90;;;;;;4928242;29;20047;-87
2022/04/17 07:45:08;;;;;;;12.27;9.13;;;10.00;99.90;;;;;;4933704;29;20051;-86
2022/04/17 07:47:34;;;;;;;13.85;9.60;;;10.20;99.90;;;;;;4914085;29;20048;-86
2022/04/17 07:50:00;;;;;;;11.48;9.35;;;10.30;99.90;;;;;;4935691;29;20044;-87
2022/04/17 07:52:26;;;;;;;13.00;9.50;;;10.40;99.60;;;;;;4946270;29;20050;-88
2022/04/17 07:54:51;;;;;;;12.07;8.90;;;10.40;98.80;;;;;;4939251;29;20043;-86
2022/04/17 07:57:17;;;;;;;12.38;8.52;;;10.50;98.40;;;;;;4931676;29;20060;-86
2022/04/17 07:59:42;;;;;;;11.43;8.20;;;10.60;97.80;;;;;;4939222;29;20047;-87
2022/04/17 08:02:22;;;;;;;10.63;8.00;;;10.70;97.10;;;;;;4931455;29;20050;-87
2022/04/17 08:04:51;;;;;;;10.55;8.18;;;10.80;96.10;;;;;;4929309;29;20390;-87
2022/04/17 08:07:19;;;;;;;12.13;8.63;;;10.90;95.70;;;;;;4915082;29;20130;-86
2022/04/17 08:09:45;;;;;;;10.75;7.80;;;11.00;94.70;;;;;;4931035;29;20052;-87
2022/04/17 08:12:10;;;;;;;10.30;7.65;;;11.00;92.90;;;;;;4934424;29;20318;-87
2022/04/17 08:14:36;;;;;;;10.35;7.50;;;11.10;93.30;;;;;;4917105;29;20067;-86
2022/04/17 08:17:01;;;;;;;10.73;7.50;;;11.10;92.40;;;;;;4953995;29;20051;-87
2022/04/17 08:19:29;;;;;;;10.18;7.90;;;11.20;91.30;;;;;;4924405;29;20123;-87
2022/04/17 08:21:55;;;;;;;10.35;7.85;;;11.30;91.40;;;;;;4914901;29;20118;-87
2022/04/17 08:24:21;;;;;;;10.63;7.90;;;11.30;90.60;;;;;;4914376;29;20139;-88
2022/04/17 08:26:46;;;;;;;10.80;7.90;;;11.40;90.40;;;;;;4915147;29;20074;-88
2022/04/17 08:29:12;;;;;;;10.60;7.00;;;11.50;88.90;;;;;;4914594;29;20043;-88
2022/04/17 08:31:37;;;;;;;10.32;7.07;;;11.60;85.60;;;;;;4932073;29;20078;-87
2022/04/17 08:34:03;;;;;;;10.85;7.10;;;11.60;82.70;;;;;;4931270;29;20477;-87
2022/04/17 08:36:28;;;;;;;8.48;5.68;;;11.70;84.00;;;;;;4932125;29;20052;-87
2022/04/17 08:38:54;;;;;;;9.35;6.38;;;11.80;81.50;;;;;;4931042;29;20071;-88
2022/04/17 08:41:21;;;;;;;9.70;6.20;;;11.90;79.70;;;;;;4932151;29;20048;-87
2022/04/17 08:43:47;;;;;;;10.60;6.45;;;12.00;77.80;;;;;;4931114;29;20079;-87
2022/04/17 08:46:13;;;;;;;10.90;7.53;;;12.10;78.30;;;;;;4932030;29;20485;-87
2022/04/17 08:48:38;;;;;;;10.07;6.60;;;12.10;78.10;;;;;;4931440;29;20048;-88
2022/04/17 08:51:05;;;;;;;8.98;5.65;;;12.20;77.50;;;;;;4931628;29;20083;-87
2022/04/17 08:53:34;;;;;;;9.80;6.18;;;12.30;76.70;;;;;;4932444;29;20066;-87
2022/04/17 08:55:59;;;;;;;9.93;5.85;;;12.40;75.80;;;;;;4914060;29;20059;-87
2022/04/17 08:58:26;;;;;;;8.82;5.65;;;12.50;74.30;;;;;;4931906;29;20043;-87
2022/04/17 09:00:51;;;;;;;8.75;5.43;;;12.50;73.70;;;;;;4912135;29;20044;-87
2022/04/17 09:03:17;;;;;;;9.07;5.47;;;12.60;72.30;;;;;;4893930;29;20507;-87
2022/04/17 09:05:43;;;;;;;11.35;5.88;;;12.60;71.00;;;;;;4912681;29;20470;-87
2022/04/17 09:08:15;;;;;;;10.38;5.97;;;12.70;69.70;;;;;;4917855;29;20047;-87
2022/04/17 09:10:41;;;;;;;10.10;6.30;;;12.80;71.20;;;;;;4935083;29;20047;-87
2022/04/17 09:13:07;;;;;;;8.70;6.10;;;12.90;70.30;;;;;;4934195;29;20111;-87
2022/04/17 09:15:35;;;;;;;9.90;6.22;;;12.90;70.20;;;;;;4935342;29;20052;-86
2022/04/17 09:18:01;;;;;;;9.32;6.20;;;13.00;70.00;;;;;;4934723;29;20103;-87
2022/04/17 09:20:28;;;;;;;12.52;6.55;;;13.00;69.70;;;;;;4935074;29;20174;-87
2022/04/17 09:22:56;;;;;;;10.13;6.50;;;13.10;69.70;;;;;;4934678;29;20123;-87
2022/04/17 09:25:28;;;;;;;9.40;6.60;;;13.10;70.00;;;;;;4935327;29;20516;-87
2022/04/17 09:28:02;;;;;;;9.70;6.93;;;13.20;69.40;;;;;;4944546;29;20400;-86
2022/04/17 09:30:40;;;;;;;10.38;7.25;;;13.10;69.30;;;;;;4933905;29;20502;-86
2022/04/17 09:33:09;;;;;;;9.15;6.50;;;13.20;67.90;;;;;;4934660;29;20043;-87
2022/04/17 09:35:35;;;;;;;9.68;6.95;;;13.30;68.70;;;;;;4933719;29;20048;-85
2022/04/17 09:38:06;;;;;;;10.60;7.05;;;13.30;68.90;;;;;;4931612;29;20055;-91
2022/04/17 09:40:33;;;;;;;9.43;6.78;;;13.40;68.70;;;;;;4911419;29;20048;-88
2022/04/17 09:43:10;;;;;;;10.35;6.60;;;13.40;68.30;;;;;;4930524;29;20127;-90
2022/04/17 09:46:13;;;;;;;10.15;7.00;;;13.50;68.10;;;;;;4930862;29;20040;-86
2022/04/17 09:48:41;;;;;;;10.52;6.72;;;13.50;68.50;;;;;;4925946;29;20051;-86
2022/04/17 09:51:26;;;;;;;10.10;6.57;;;13.60;67.50;;;;;;4916641;29;20051;-87
2022/04/17 09:53:59;;;;;;;9.48;6.40;;;13.70;66.50;;;;;;4915114;29;20119;-87
2022/04/17 09:56:38;;;;;;;9.63;6.55;;;13.80;67.10;;;;;;4928618;29;20102;-87
2022/04/17 09:59:18;;;;;;;9.70;6.38;;;13.80;64.70;;;;;;4933565;29;20560;-87
2022/04/17 10:01:57;;;;;;;10.32;6.43;;;13.90;64.10;;;;;;4917261;29;20066;-87
2022/04/17 10:04:25;;;;;;;9.27;6.65;;;14.00;64.70;;;;;;4910391;29;20058;-87
2022/04/17 10:06:57;;;;;;;9.93;6.90;;;14.10;66.10;;;;;;4931417;29;20044;-88
2022/04/17 10:09:23;;;;;;;9.85;6.75;;;14.10;65.80;;;;;;4934543;29;20048;-88
2022/04/17 10:11:51;;;;;;;9.93;6.78;;;14.20;64.50;;;;;;4935746;29;20032;-86
2022/04/17 10:14:16;;;;;;;8.52;5.93;;;14.30;65.00;;;;;;4947566;29;20055;-87
2022/04/17 10:16:43;;;;;;;8.77;5.75;;;14.40;63.80;;;;;;4935719;29;20285;-87
2022/04/17 10:19:14;;;;;;;9.35;5.47;;;14.50;62.60;;;;;;4932734;29;20509;-87
2022/04/17 10:21:40;;;;;;;10.10;5.90;;;14.50;61.50;;;;;;4930131;29;20429;-88
2022/04/17 10:24:07;;;;;;;9.85;6.53;;;14.50;60.60;;;;;;4933256;29;20048;-87
2022/04/17 10:26:37;;;;;;;9.10;6.00;;;14.60;61.10;;;;;;4933312;29;20370;-89
2022/04/17 10:29:06;;;;;;;8.65;5.65;;;14.70;59.90;;;;;;4915738;29;20087;-88
2022/04/17 10:31:49;;;;;;;7.22;4.53;;;14.70;58.70;;;;;;4914556;29;20400;-91
2022/04/17 10:34:32;;;;;;;8.73;5.43;;;14.80;58.30;;;;;;4930757;29;20051;-95
2022/04/17 10:37:12;;;;;;;7.90;5.18;;;14.80;57.70;;;;;;4929066;29;20052;-96
2022/04/17 10:39:47;;;;;;;8.07;4.63;;;14.90;58.00;;;;;;4951986;29;20035;-96
2022/04/17 10:42:13;;;;;;;9.15;5.30;;;15.00;58.00;;;;;;4942217;29;20275;-89
2022/04/17 10:44:41;;;;;;;8.88;5.00;;;15.00;56.90;;;;;;4949001;29;20366;-90
2022/04/17 10:47:22;;;;;;;8.07;4.90;;;15.10;57.20;;;;;;4950526;29;20040;-91
2022/04/17 10:49:53;;;;;;;;;;;15.10;56.00;;;;;;4971436;28;20035;-92
2022/04/17 10:52:32;;;;;;;8.17;5.67;;;15.10;57.30;;;;;;4933735;29;19923;-91
2022/04/17 10:55:08;;;;;;;8.00;4.82;;;15.20;54.60;;;;;;4932610;29;20489;-88
2022/04/17 10:57:48;;;;;;;8.30;5.03;;;15.20;53.80;;;;;;4928852;29;20048;-90
2022/04/17 11:00:37;;;;;;;8.55;4.93;;;15.20;54.40;;;;;;4933626;29;20054;-90
2022/04/17 11:03:10;;;;;;;7.82;4.38;;;15.40;53.30;;;;;;4932849;29;20098;-90
2022/04/17 11:06:09;;;;;;;7.45;4.10;;;15.40;53.80;;;;;;4932783;29;20190;-91
2022/04/17 11:08:25;;;;;;;8.07;5.05;;;15.50;52.90;;;;;;4931540;29;20440;-90
2022/04/17 11:10:54;;;;;;;8.98;4.95;;;15.50;53.90;;;;;;4913313;29;20404;-88
2022/04/17 11:13:21;;;;;;;8.00;5.03;;;15.60;53.80;;;;;;4931843;29;20100;-88
2022/04/17 11:16:08;;;;;;;8.55;5.15;;;15.60;53.60;;;;;;4927500;29;20044;-86
2022/04/17 11:18:34;;;;;;;8.15;5.10;;;15.70;53.40;;;;;;4915386;29;20086;-88
2022/04/17 11:21:00;;;;;;;7.57;4.75;;;15.70;52.30;;;;;;4927236;29;20071;-91
2022/04/17 11:23:47;;;;;;;9.18;5.70;;;15.70;52.80;;;;;;4933501;29;20047;-92
2022/04/17 11:26:13;;;;;;;8.50;5.45;;;15.80;54.40;;;;;;4928746;29;20399;-93
2022/04/17 11:28:39;;;;;;;8.98;5.55;;;15.90;54.00;;;;;;4919553;29;20063;-91
2022/04/17 11:31:05;;;;;;;9.20;5.43;;;16.00;54.10;;;;;;4932257;29;20390;-93
2022/04/17 11:33:30;;;;;;;8.15;5.38;;;16.00;53.10;;;;;;4934968;29;20047;-91
2022/04/17 11:35:57;;;;;;;8.90;5.00;;;15.80;50.90;;;;;;4933008;29;20044;-92
2022/04/17 11:38:23;;;;;;;8.18;4.60;;;15.90;52.20;;;;;;4927649;29;20126;-92
2022/04/17 11:40:49;;;;;;;8.45;4.97;;;15.90;50.10;;;;;;4915707;29;20130;-93
2022/04/17 11:43:16;;;;;;;10.32;5.88;;;16.00;51.40;;;;;;4916400;29;20047;-91
2022/04/17 11:45:44;;;;;;;8.60;5.22;;;16.20;52.60;;;;;;4933221;29;20102;-92
2022/04/17 11:48:15;;;;;;;8.52;4.97;;;16.30;52.50;;;;;;4933736;29;20397;-93
2022/04/17 11:50:41;;;;;;;8.00;4.85;;;16.30;50.40;;;;;;4916930;29;20056;-92
2022/04/17 11:53:17;;;;;;;7.88;4.82;;;16.40;50.40;;;;;;4916364;29;20048;-91
2022/04/17 11:55:45;;;;;;;9.40;5.57;;;16.50;49.30;;;;;;4919548;29;20040;-92
2022/04/17 11:58:25;;;;;;;7.82;4.63;;;16.60;49.80;;;;;;4934748;29;20401;-92
2022/04/17 12:00:57;;;;;;;7.80;4.78;;;16.60;49.90;;;;;;4933921;29;20393;-91
2022/04/17 12:03:36;;;;;;;8.30;5.40;;;16.70;49.30;;;;;;4934584;29;20054;-91
2022/04/17 12:06:04;;;;;;;9.20;5.93;;;16.70;47.60;;;;;;4934018;29;20127;-91
2022/04/17 12:08:34;;;;;;;8.93;5.85;;;16.60;49.60;;;;;;4933771;29;20056;-92
2022/04/17 12:11:01;;;;;;;9.10;5.20;;;16.70;49.90;;;;;;4932834;29;20054;-93
2022/04/17 12:13:28;;;;;;;8.50;5.65;;;16.80;50.70;;;;;;4927140;29;20420;-90
2022/04/17 12:16:06;;;;;;;10.82;5.15;;;16.80;49.90;;;;;;4944831;29;20055;-93
2022/04/17 12:18:32;;;;;;;9.88;6.25;;;16.80;49.90;;;;;;4934413;29;20127;-91
2022/04/17 12:20:59;;;;;;;8.57;5.53;;;16.90;49.30;;;;;;4916770;29;20564;-94
2022/04/17 12:23:25;;;;;;;9.25;6.22;;;16.90;48.80;;;;;;4917683;29;20099;-91
2022/04/17 12:25:52;;;;;;;9.18;5.82;;;16.90;48.30;;;;;;4932965;29;20040;-93
2022/04/17 12:28:18;;;;;;;9.07;6.18;;;16.80;48.30;;;;;;4918362;29;20052;-94
2022/04/17 12:30:43;;;;;;;9.00;6.47;;;16.70;48.30;;;;;;4935571;29;20039;-94
2022/04/17 12:33:27;;;;;;;9.07;6.10;;;16.70;48.10;;;;;;4933748;29;20103;-92
2022/04/17 12:36:15;;;;;;;10.05;5.88;;;16.70;49.50;;;;;;4934744;29;20051;-93
2022/04/17 12:38:54;;;;;;;7.70;5.38;;;16.70;48.30;;;;;;4919064;29;20044;-93
2022/04/17 12:41:30;;;;;;;10.00;6.25;;;16.70;48.70;;;;;;4920527;29;20087;-93
2022/04/17 12:43:56;;;;;;;8.55;6.03;;;16.70;49.60;;;;;;4935491;29;20044;-96
2022/04/17 12:46:26;;;;;;;9.73;6.10;;;16.80;49.50;;;;;;4920755;29;20043;-94
2022/04/17 12:49:08;;;;;;;8.60;6.25;;;16.80;49.60;;;;;;4936833;29;20073;-92
2022/04/17 12:51:34;;;;;;;9.98;6.72;;;16.80;47.90;;;;;;4938727;29;20048;-94
2022/04/17 12:54:01;;;;;;;9.63;6.55;;;16.80;47.80;;;;;;4938869;29;20103;-92
2022/04/17 12:56:27;;;;;;;9.02;6.20;;;16.80;48.20;;;;;;4921705;29;20199;-95
2022/04/17 12:59:02;;;;;;;9.88;6.72;;;16.70;47.20;;;;;;4937273;29;20043;-94
2022/04/17 13:01:37;;;;;;;9.65;5.93;;;16.70;46.30;;;;;;4937354;29;20130;-93
2022/04/17 13:04:19;;;;;;;9.75;6.20;;;16.70;47.80;;;;;;4918793;29;20107;-93